Řízení letového provozu České republiky
Letiste: LKTB Aktualizace: 19.02.2018 12:03:14  UTC
 METAR LKTB 19.02. 12:00 ...
METAR LKTB 191200Z 07006KT CAVOK 00/M04 Q1022 R27/31//95 NOSIG RMK REG QNH 1014=
 TAF LKTB 19.02. 11:00 ...
TAF LKTB 191100Z 1912/2018 13006KT 9999 SCT030      TEMPO 1912/1920 9999 BKN030      BECMG 1919/1922 07006KT=